createdAt,value
2022-09-28T00:00:18.547Z,96077.69
2022-09-28T00:04:21.360Z,96072.19
2022-09-28T00:08:23.422Z,96073.22
2022-09-28T00:12:25.460Z,96062.88
2022-09-28T00:16:34.301Z,96048.25
2022-09-28T00:20:37.664Z,96054.13
2022-09-28T00:24:39.664Z,96051.19
2022-09-28T00:28:41.660Z,96047.44
2022-09-28T00:32:43.700Z,96049.75
2022-09-28T00:36:46.982Z,96032.84
2022-09-28T00:40:49.181Z,96032.09
2022-09-28T00:44:55.547Z,96017.78
2022-09-28T00:49:03.176Z,96000.03
2022-09-28T00:53:11.688Z,95990.22
2022-09-28T00:57:14.990Z,95985.00
2022-09-28T01:01:17.255Z,95978.09
2022-09-28T01:05:20.773Z,95971.22
2022-09-28T01:09:25.008Z,95971.41
2022-09-28T01:13:28.420Z,95963.03
2022-09-28T01:17:44.810Z,95959.50
2022-09-28T01:21:54.062Z,95956.78
2022-09-28T01:26:24.003Z,95966.00
2022-09-28T01:30:26.403Z,95954.38
2022-09-28T01:34:37.414Z,95951.56
2022-09-28T01:38:55.744Z,95943.72
2022-09-28T01:43:06.036Z,95942.56
2022-09-28T01:47:12.387Z,95950.91
2022-09-28T01:51:21.948Z,95935.47
2022-09-28T01:55:33.670Z,95925.63
2022-09-28T01:59:41.776Z,95923.84
2022-09-28T02:03:48.653Z,95920.50
2022-09-28T02:08:01.179Z,95916.84
2022-09-28T02:12:10.038Z,95906.28
2022-09-28T02:16:34.722Z,95906.19
2022-09-28T02:20:41.075Z,95907.94
2022-09-28T02:24:53.630Z,95901.56
2022-09-28T02:28:59.641Z,95907.31
2022-09-28T02:33:25.329Z,95905.75
2022-09-28T02:37:28.181Z,95891.84
2022-09-28T02:42:19.501Z,95893.31
2022-09-28T02:46:32.746Z,95892.13
2022-09-28T02:51:11.471Z,95885.97
2022-09-28T02:55:28.837Z,95888.81
2022-09-28T02:59:57.692Z,95888.06
2022-09-28T03:04:05.665Z,95885.78
2022-09-28T03:08:19.104Z,95880.66
2022-09-28T03:12:24.360Z,95886.72
2022-09-28T03:16:27.566Z,95896.25
2022-09-28T03:20:32.226Z,95887.34
2022-09-28T03:24:34.408Z,95895.19
2022-09-28T03:28:37.246Z,95886.84
2022-09-28T03:32:40.479Z,95886.72
2022-09-28T03:36:43.155Z,95897.63
2022-09-28T03:40:53.781Z,95893.66
2022-09-28T03:44:56.765Z,95895.53
2022-09-28T03:48:59.275Z,95890.84
2022-09-28T03:53:04.538Z,95896.38
2022-09-28T03:57:06.868Z,95891.56
2022-09-28T04:01:16.497Z,95897.25
2022-09-28T04:05:20.482Z,95892.81
2022-09-28T04:09:23.112Z,95897.66
2022-09-28T04:13:26.124Z,95894.13
2022-09-28T04:17:28.166Z,95907.69
2022-09-28T04:21:31.205Z,95903.94
2022-09-28T04:25:39.618Z,95896.28
2022-09-28T04:29:43.040Z,95892.00
2022-09-28T04:33:45.871Z,95903.06
2022-09-28T04:37:47.999Z,95905.69
2022-09-28T04:41:50.407Z,95908.91
2022-09-28T04:45:52.549Z,95913.13
2022-09-28T04:49:56.891Z,95909.44
2022-09-28T04:54:07.536Z,95916.25
2022-09-28T04:58:09.511Z,95909.13
2022-09-28T05:02:13.844Z,95919.41
2022-09-28T05:06:35.804Z,95922.09
2022-09-28T05:10:40.933Z,95924.09
2022-09-28T05:14:42.935Z,95929.31
2022-09-28T05:18:45.756Z,95938.91
2022-09-28T05:22:47.878Z,95935.78
2022-09-28T05:26:50.019Z,95941.22
2022-09-28T05:30:52.458Z,95942.88
2022-09-28T05:35:17.845Z,95948.13
2022-09-28T05:39:21.754Z,95954.66
2022-09-28T05:43:23.875Z,95953.94
2022-09-28T05:47:27.128Z,95956.25
2022-09-28T05:51:29.879Z,95955.00
2022-09-28T05:55:33.147Z,95952.06
2022-09-28T05:59:36.203Z,95961.38
2022-09-28T06:03:38.359Z,95959.91
2022-09-28T06:07:40.484Z,95968.38
2022-09-28T06:11:42.721Z,95969.63
2022-09-28T06:15:53.617Z,95967.41
2022-09-28T06:19:56.101Z,95970.78
2022-09-28T06:24:01.944Z,95972.25
2022-09-28T06:28:06.789Z,95973.31
2022-09-28T06:32:08.903Z,95985.81
2022-09-28T06:36:13.637Z,95982.69
2022-09-28T06:40:15.894Z,95991.91
2022-09-28T06:44:18.173Z,95997.09
2022-09-28T06:48:53.117Z,95991.53
2022-09-28T06:53:30.226Z,95995.84
2022-09-28T06:58:04.790Z,96000.00
2022-09-28T07:02:10.700Z,96008.41
2022-09-28T07:06:33.175Z,96016.84
2022-09-28T07:10:58.263Z,96024.72
2022-09-28T07:15:16.614Z,96038.09
2022-09-28T07:19:19.135Z,96031.59
2022-09-28T07:23:21.187Z,96034.03
2022-09-28T07:27:55.423Z,96036.41
2022-09-28T07:32:08.940Z,96041.81
2022-09-28T07:36:35.051Z,96051.97
2022-09-28T07:40:55.981Z,96067.66
2022-09-28T07:44:58.499Z,96061.13
2022-09-28T07:49:00.885Z,96071.19
2022-09-28T07:53:09.228Z,96066.09
2022-09-28T07:57:28.835Z,96076.06
2022-09-28T08:01:49.388Z,96082.34
2022-09-28T08:05:57.092Z,96090.09
2022-09-28T08:09:59.283Z,96097.56
2022-09-28T08:14:21.445Z,96109.22
2022-09-28T08:18:55.785Z,96103.41
2022-09-28T08:23:04.130Z,96117.31
2022-09-28T08:27:07.681Z,96122.38
2022-09-28T08:31:10.784Z,96120.97
2022-09-28T08:35:46.676Z,96125.75
2022-09-28T08:40:13.536Z,96126.00
2022-09-28T08:49:24.220Z,96139.28
2022-09-28T08:53:45.877Z,96141.56
2022-09-28T08:58:17.315Z,96144.44
2022-09-28T09:02:25.386Z,96148.88
2022-09-28T09:07:11.075Z,96146.03
2022-09-28T09:11:23.278Z,96154.19
2022-09-28T09:15:43.631Z,96164.59
2022-09-28T09:20:01.240Z,96162.22
2022-09-28T09:24:31.186Z,96164.50
2022-09-28T09:28:35.213Z,96165.44
2022-09-28T09:33:00.646Z,96174.31
2022-09-28T09:37:13.455Z,96177.88
2022-09-28T09:42:28.121Z,96174.97
2022-09-28T09:46:58.761Z,96176.38
2022-09-28T09:51:28.659Z,96174.03
2022-09-28T09:55:44.357Z,96177.88
2022-09-28T10:00:01.815Z,96184.91
2022-09-28T10:04:22.229Z,96178.59
2022-09-28T10:08:26.902Z,96181.22
2022-09-28T10:12:30.977Z,96176.22
2022-09-28T10:16:35.787Z,96176.44
2022-09-28T10:20:44.882Z,96174.81
2022-09-28T10:24:57.370Z,96171.25
2022-09-28T10:29:05.388Z,96171.03
2022-09-28T10:33:28.944Z,96171.78
2022-09-28T10:37:31.821Z,96184.88
2022-09-28T10:41:51.685Z,96195.06
2022-09-28T10:46:03.423Z,96187.66
2022-09-28T10:50:21.025Z,96197.00
2022-09-28T10:54:26.690Z,96199.50
2022-09-28T10:58:40.401Z,96197.63
2022-09-28T11:02:45.812Z,96200.22
2022-09-28T11:11:13.055Z,96198.22
2022-09-28T11:15:28.828Z,96196.78
2022-09-28T11:19:31.734Z,96193.81
2022-09-28T11:23:33.855Z,96204.78
2022-09-28T11:27:52.073Z,96215.63
2022-09-28T11:32:04.126Z,96215.16
2022-09-28T11:36:12.929Z,96209.91
2022-09-28T11:40:43.445Z,96203.47
2022-09-28T11:44:47.873Z,96198.28
2022-09-28T11:49:20.892Z,96201.22
2022-09-28T11:53:37.420Z,96189.44
2022-09-28T11:57:43.892Z,96198.84
2022-09-28T12:01:59.919Z,96197.28
2022-09-28T12:06:16.051Z,96198.09
2022-09-28T12:10:39.401Z,96200.28
2022-09-28T12:14:45.654Z,96195.28
2022-09-28T12:19:05.418Z,96193.94
2022-09-28T12:23:14.581Z,96192.03
2022-09-28T12:27:23.723Z,96192.53
2022-09-28T12:31:34.296Z,96191.13
2022-09-28T12:35:51.010Z,96190.38
2022-09-28T12:40:30.121Z,96193.97
2022-09-28T12:45:02.123Z,96191.16
2022-09-28T12:54:04.541Z,96183.72
2022-09-28T12:58:24.569Z,96195.31
2022-09-28T13:03:14.961Z,96193.94
2022-09-28T13:07:28.844Z,96204.38
2022-09-28T13:11:31.923Z,96204.41
2022-09-28T13:15:43.320Z,96202.06
2022-09-28T13:19:57.729Z,96198.84
2022-09-28T13:24:20.780Z,96201.00
2022-09-28T13:28:28.239Z,96193.31
2022-09-28T13:32:33.264Z,96190.50
2022-09-28T13:36:37.058Z,96191.97
2022-09-28T13:41:03.880Z,96191.25
2022-09-28T13:45:21.070Z,96196.41
2022-09-28T13:49:38.267Z,96194.59
2022-09-28T13:53:57.138Z,96194.06
2022-09-28T13:58:40.825Z,96199.63
2022-09-28T14:02:54.041Z,96193.28
2022-09-28T14:07:10.076Z,96206.63
2022-09-28T14:11:37.696Z,96204.72
2022-09-28T14:15:43.893Z,96211.91
2022-09-28T14:20:01.000Z,96206.84
2022-09-28T14:24:12.156Z,96213.09
2022-09-28T14:28:24.366Z,96218.06
2022-09-28T14:32:37.010Z,96225.13
2022-09-28T14:37:06.477Z,96224.03
2022-09-28T14:41:31.217Z,96222.53
2022-09-28T14:45:36.488Z,96225.47
2022-09-28T14:49:47.619Z,96228.97
2022-09-28T14:53:51.079Z,96228.84
2022-09-28T14:57:57.172Z,96228.75
2022-09-28T15:02:06.160Z,96231.50
2022-09-28T15:06:16.087Z,96236.06
2022-09-28T15:10:31.259Z,96246.31
2022-09-28T15:14:42.054Z,96233.00
2022-09-28T15:19:05.476Z,96232.63
2022-09-28T15:23:44.171Z,96240.06
2022-09-28T15:27:52.561Z,96238.91
2022-09-28T15:31:54.877Z,96243.22
2022-09-28T15:36:05.618Z,96245.50
2022-09-28T15:40:15.385Z,96253.09
2022-09-28T15:44:29.024Z,96248.06
2022-09-28T15:48:51.914Z,96253.34
2022-09-28T15:53:00.652Z,96244.94
2022-09-28T15:57:03.333Z,96256.13
2022-09-28T16:01:47.488Z,96257.34
2022-09-28T16:06:11.693Z,96259.38
2022-09-28T16:10:13.686Z,96266.47
2022-09-28T16:14:24.500Z,96261.47
2022-09-28T16:18:30.775Z,96261.50
2022-09-28T16:22:32.889Z,96270.00
2022-09-28T16:26:38.888Z,96262.44
2022-09-28T16:31:00.096Z,96267.09
2022-09-28T16:35:18.701Z,96271.75
2022-09-28T16:39:21.772Z,96276.75
2022-09-28T16:43:36.535Z,96270.53
2022-09-28T16:47:39.474Z,96276.22
2022-09-28T16:51:41.469Z,96280.34
2022-09-28T16:55:44.411Z,96278.31
2022-09-28T16:59:46.353Z,96285.34
2022-09-28T17:03:50.079Z,96280.25
2022-09-28T17:08:04.008Z,96286.84
2022-09-28T17:12:18.092Z,96289.31
2022-09-28T17:16:32.584Z,96298.47
2022-09-28T17:20:48.961Z,96295.75
2022-09-28T17:24:50.937Z,96304.56
2022-09-28T17:28:53.215Z,96298.94
2022-09-28T17:32:55.321Z,96310.72
2022-09-28T17:36:57.371Z,96311.69
2022-09-28T17:40:59.486Z,96319.03
2022-09-28T17:45:01.528Z,96328.44
2022-09-28T17:49:05.367Z,96326.38
2022-09-28T17:53:07.454Z,96331.81
2022-09-28T17:57:10.201Z,96332.06
2022-09-28T18:01:12.327Z,96330.38
2022-09-28T18:05:14.843Z,96327.03
2022-09-28T18:09:24.658Z,96333.47
2022-09-28T18:13:26.667Z,96337.97
2022-09-28T18:17:28.668Z,96329.34
2022-09-28T18:21:33.874Z,96328.75
2022-09-28T18:25:39.613Z,96327.19
2022-09-28T18:29:41.614Z,96335.78
2022-09-28T18:33:43.631Z,96339.38
2022-09-28T18:37:45.626Z,96351.72
2022-09-28T18:41:47.768Z,96344.94
2022-09-28T18:45:49.773Z,96347.97
2022-09-28T18:49:51.802Z,96351.22
2022-09-28T18:53:53.975Z,96356.28
2022-09-28T18:57:56.032Z,96353.13
2022-09-28T19:02:01.289Z,96364.69
2022-09-28T19:06:03.786Z,96366.47
2022-09-28T19:10:06.419Z,96358.63
2022-09-28T19:14:11.013Z,96362.91
2022-09-28T19:18:12.998Z,96370.13
2022-09-28T19:22:14.984Z,96365.00
2022-09-28T19:26:22.907Z,96369.94
2022-09-28T19:30:24.930Z,96363.13
2022-09-28T19:34:29.956Z,96377.38
2022-09-28T19:38:34.321Z,96372.34
2022-09-28T19:42:36.346Z,96373.41
2022-09-28T19:46:39.967Z,96369.72
2022-09-28T19:50:42.017Z,96361.13
2022-09-28T19:54:54.345Z,96371.63
2022-09-28T19:58:57.016Z,96369.41
2022-09-28T20:02:59.065Z,96366.25
2022-09-28T20:07:01.733Z,96371.09
2022-09-28T20:11:03.914Z,96373.88
2022-09-28T20:15:07.838Z,96388.03
2022-09-28T20:19:10.048Z,96407.41
2022-09-28T20:23:12.118Z,96428.31
2022-09-28T20:27:14.114Z,96423.66
2022-09-28T20:31:19.911Z,96429.63
2022-09-28T20:35:32.224Z,96436.56
2022-09-28T20:39:35.916Z,96441.41
2022-09-28T20:43:38.539Z,96432.06
2022-09-28T20:47:40.557Z,96437.50
2022-09-28T20:51:42.580Z,96430.03
2022-09-28T20:55:44.559Z,96425.00
2022-09-28T20:59:52.171Z,96427.06
2022-09-28T21:03:59.097Z,96440.59
2022-09-28T21:08:01.415Z,96435.19
2022-09-28T21:12:04.986Z,96440.28
2022-09-28T21:16:07.191Z,96445.16
2022-09-28T21:20:09.458Z,96439.94
2022-09-28T21:24:11.640Z,96444.22
2022-09-28T21:28:17.134Z,96440.97
2022-09-28T21:32:19.160Z,96440.41
2022-09-28T21:36:21.189Z,96442.56
2022-09-28T21:40:23.305Z,96441.81
2022-09-28T21:44:25.418Z,96435.19
2022-09-28T21:48:28.511Z,96435.28
2022-09-28T21:52:30.504Z,96418.88
2022-09-28T21:56:32.637Z,96425.31
2022-09-28T22:00:34.663Z,96420.56
2022-09-28T22:04:36.675Z,96430.63
2022-09-28T22:08:39.383Z,96424.66
2022-09-28T22:12:41.497Z,96433.22
2022-09-28T22:16:43.524Z,96437.28
2022-09-28T22:20:45.532Z,96435.06
2022-09-28T22:24:47.521Z,96428.66
2022-09-28T22:28:55.054Z,96429.09
2022-09-28T22:32:57.053Z,96430.72
2022-09-28T22:36:59.391Z,96433.59
2022-09-28T22:41:03.685Z,96427.13
2022-09-28T22:45:06.416Z,96427.84
2022-09-28T22:49:10.306Z,96430.22
2022-09-28T22:53:14.029Z,96426.84
2022-09-28T22:57:16.019Z,96432.41
2022-09-28T23:01:21.175Z,96434.28
2022-09-28T23:05:23.573Z,96426.34
2022-09-28T23:09:25.639Z,96426.28
2022-09-28T23:13:28.764Z,96425.34
2022-09-28T23:17:30.756Z,96423.31
2022-09-28T23:21:32.786Z,96421.81
2022-09-28T23:25:34.800Z,96425.00
2022-09-28T23:29:38.866Z,96428.75
2022-09-28T23:33:41.093Z,96421.63
2022-09-28T23:37:43.100Z,96424.13
2022-09-28T23:41:45.091Z,96416.56
2022-09-28T23:45:47.284Z,96419.75
2022-09-28T23:49:49.312Z,96427.31
2022-09-28T23:53:51.351Z,96429.72
2022-09-28T23:57:55.547Z,96439.09
